Terminal Aerodrome Forecast
Issued by NWS Corpus Christi, TX

Home | Current Version | Previous Version | Text Only | Print | Product List | Glossary On
Versions: 1 2 3 4 5 6 7 8 9 10 11 12
000
FTUS44 KCRP 060528
TAFVCT
TAF
KVCT 060528Z 0606/0706 VRB03KT P6SM SCT250
     FM061400 09005KT P6SM SCT035
     FM061900 09008G15KT P6SM SCT040 BKN200
     FM070200 14006KT P6SM BKN200=

USA.gov is the U.S. government's official web portal to all federal, state and local government web resources and services.